sensor_id;sensor_type;location;lat;lon;timestamp;pressure;altitude;pressure_sealevel;temperature;humidity
41624;BME280;27319;50.306;18.926;2023-04-24T00:02:04;97290.81;;;14.02;70.43
41624;BME280;27319;50.306;18.926;2023-04-24T00:06:05;97289.16;;;14.01;70.13
41624;BME280;27319;50.306;18.926;2023-04-24T00:10:06;97281.91;;;14.02;69.68
41624;BME280;27319;50.306;18.926;2023-04-24T00:14:07;97287.91;;;14.04;69.57
41624;BME280;27319;50.306;18.926;2023-04-24T00:18:08;97284.59;;;14.02;70.07
41624;BME280;27319;50.306;18.926;2023-04-24T00:22:08;97275.06;;;13.93;69.94
41624;BME280;27319;50.306;18.926;2023-04-24T00:26:09;97275.91;;;13.87;69.68
41624;BME280;27319;50.306;18.926;2023-04-24T00:29:37;97265.16;;;13.80;70.45
41624;BME280;27319;50.306;18.926;2023-04-24T00:32:38;97262.69;;;13.79;70.89
41624;BME280;27319;50.306;18.926;2023-04-24T00:35:39;97262.69;;;13.79;70.71
41624;BME280;27319;50.306;18.926;2023-04-24T00:39:00;97250.84;;;13.80;70.83
41624;BME280;27319;50.306;18.926;2023-04-24T00:43:01;97251.69;;;13.74;71.11
41624;BME280;27319;50.306;18.926;2023-04-24T00:47:01;97243.16;;;13.77;70.75
41624;BME280;27319;50.306;18.926;2023-04-24T00:51:02;97245.25;;;13.75;70.53
41624;BME280;27319;50.306;18.926;2023-04-24T00:55:03;97230.34;;;13.66;70.92
41624;BME280;27319;50.306;18.926;2023-04-24T00:59:04;97237.59;;;13.72;70.95
41624;BME280;27319;50.306;18.926;2023-04-24T01:02:45;97229.72;;;13.64;70.15
41624;BME280;27319;50.306;18.926;2023-04-24T01:06:06;97233.25;;;13.64;70.52
41624;BME280;27319;50.306;18.926;2023-04-24T01:10:07;97230.16;;;13.61;70.39
41624;BME280;27319;50.306;18.926;2023-04-24T01:14:08;97222.28;;;13.53;70.53
41624;BME280;27319;50.306;18.926;2023-04-24T01:18:08;97226.44;;;13.55;71.05
41624;BME280;27319;50.306;18.926;2023-04-24T01:22:13;97232.88;;;13.48;70.69
41624;BME280;27319;50.306;18.926;2023-04-24T01:26:16;97214.00;;;13.48;70.74
41624;BME280;27319;50.306;18.926;2023-04-24T01:30:14;97212.16;;;13.42;71.04
41624;BME280;27319;50.306;18.926;2023-04-24T01:34:14;97219.22;;;13.30;69.95
41624;BME280;27319;50.306;18.926;2023-04-24T01:38:15;97211.38;;;13.22;70.54
41624;BME280;27319;50.306;18.926;2023-04-24T01:42:16;97204.72;;;13.18;70.03
41624;BME280;27319;50.306;18.926;2023-04-24T01:46:17;97202.22;;;13.16;70.73
41624;BME280;27319;50.306;18.926;2023-04-24T01:50:18;97200.19;;;13.12;69.45
41624;BME280;27319;50.306;18.926;2023-04-24T01:54:18;97205.59;;;13.05;69.33
41624;BME280;27319;50.306;18.926;2023-04-24T01:58:19;97203.31;;;13.09;70.07
41624;BME280;27319;50.306;18.926;2023-04-24T02:01:59;97198.53;;;13.04;70.92
41624;BME280;27319;50.306;18.926;2023-04-24T02:05:03;97191.50;;;12.97;70.24
41624;BME280;27319;50.306;18.926;2023-04-24T02:09:03;97187.53;;;12.93;69.82
41624;BME280;27319;50.306;18.926;2023-04-24T02:12:44;97189.19;;;12.94;70.98
41624;BME280;27319;50.306;18.926;2023-04-24T02:15:45;97181.94;;;12.88;70.39
41624;BME280;27319;50.306;18.926;2023-04-24T02:18:46;97188.78;;;12.90;70.80
41624;BME280;27319;50.306;18.926;2023-04-24T02:22:07;97179.66;;;12.78;68.36
41624;BME280;27319;50.306;18.926;2023-04-24T02:26:09;97180.28;;;12.74;69.72
41624;BME280;27319;50.306;18.926;2023-04-24T02:30:10;97175.75;;;12.68;70.95
41624;BME280;27319;50.306;18.926;2023-04-24T02:34:11;97171.59;;;12.72;70.58
41624;BME280;27319;50.306;18.926;2023-04-24T02:38:12;97163.94;;;12.69;69.10
41624;BME280;27319;50.306;18.926;2023-04-24T02:42:13;97174.50;;;12.64;68.86
41624;BME280;27319;50.306;18.926;2023-04-24T02:46:13;97164.94;;;12.74;70.30
41624;BME280;27319;50.306;18.926;2023-04-24T02:49:50;97163.50;;;12.72;70.65
41624;BME280;27319;50.306;18.926;2023-04-24T02:53:50;97166.59;;;12.56;70.42
41624;BME280;27319;50.306;18.926;2023-04-24T02:57:51;97158.13;;;12.59;70.61
41624;BME280;27319;50.306;18.926;2023-04-24T03:01:52;97167.47;;;12.63;69.70
41624;BME280;27319;50.306;18.926;2023-04-24T03:05:33;97167.03;;;12.53;69.53
41624;BME280;27319;50.306;18.926;2023-04-24T03:08:54;97158.97;;;12.59;70.29
41624;BME280;27319;50.306;18.926;2023-04-24T03:12:55;97164.56;;;12.58;70.71
41624;BME280;27319;50.306;18.926;2023-04-24T03:16:55;97164.56;;;12.58;70.14
41624;BME280;27319;50.306;18.926;2023-04-24T03:20:56;97168.06;;;12.52;68.57
41624;BME280;27319;50.306;18.926;2023-04-24T03:24:57;97167.44;;;12.50;68.19
41624;BME280;27319;50.306;18.926;2023-04-24T03:28:57;97165.78;;;12.42;69.76
41624;BME280;27319;50.306;18.926;2023-04-24T03:32:58;97166.38;;;12.38;70.39
41624;BME280;27319;50.306;18.926;2023-04-24T03:36:39;97161.22;;;12.43;70.45
41624;BME280;27319;50.306;18.926;2023-04-24T03:40:00;97168.69;;;12.41;70.04
41624;BME280;27319;50.306;18.926;2023-04-24T03:44:00;97154.59;;;12.39;70.44
41624;BME280;27319;50.306;18.926;2023-04-24T03:47:57;97163.28;;;12.41;70.08
41624;BME280;27319;50.306;18.926;2023-04-24T03:51:58;97160.78;;;12.33;70.12
41624;BME280;27319;50.306;18.926;2023-04-24T03:55:13;97165.97;;;12.34;68.61
41624;BME280;27319;50.306;18.926;2023-04-24T03:58:34;97164.94;;;12.42;69.99
41624;BME280;27319;50.306;18.926;2023-04-24T04:01:50;97160.81;;;12.39;69.45
41624;BME280;27319;50.306;18.926;2023-04-24T04:05:11;97166.81;;;12.35;70.08
41624;BME280;27319;50.306;18.926;2023-04-24T04:09:11;97163.06;;;12.36;70.64
41624;BME280;27319;50.306;18.926;2023-04-24T04:13:12;97163.28;;;12.41;70.27
41624;BME280;27319;50.306;18.926;2023-04-24T04:17:13;97160.81;;;12.46;70.36
41624;BME280;27319;50.306;18.926;2023-04-24T04:21:14;97163.47;;;12.33;70.00
41624;BME280;27319;50.306;18.926;2023-04-24T04:25:15;97162.25;;;12.35;70.24
41624;BME280;27319;50.306;18.926;2023-04-24T04:29:15;97162.25;;;12.42;70.44
41624;BME280;27319;50.306;18.926;2023-04-24T04:33:16;97162.47;;;12.34;71.42
41624;BME280;27319;50.306;18.926;2023-04-24T04:37:17;97164.53;;;12.38;70.02
41624;BME280;27319;50.306;18.926;2023-04-24T04:41:18;97165.38;;;12.52;72.04
41624;BME280;27319;50.306;18.926;2023-04-24T04:45:18;97156.69;;;12.63;72.44
41624;BME280;27319;50.306;18.926;2023-04-24T04:49:19;97163.09;;;12.75;73.17
41624;BME280;27319;50.306;18.926;2023-04-24T04:53:20;97159.16;;;12.90;70.66
41624;BME280;27319;50.306;18.926;2023-04-24T04:57:21;97161.00;;;13.09;70.88
41624;BME280;27319;50.306;18.926;2023-04-24T05:01:05;97161.81;;;13.23;67.96
41624;BME280;27319;50.306;18.926;2023-04-24T05:04:27;97165.97;;;13.32;65.47
41624;BME280;27319;50.306;18.926;2023-04-24T05:08:27;97155.34;;;13.50;67.27
41624;BME280;27319;50.306;18.926;2023-04-24T05:12:28;97167.28;;;13.67;61.74
41624;BME280;27319;50.306;18.926;2023-04-24T05:16:29;97159.75;;;13.82;64.55
41624;BME280;27319;50.306;18.926;2023-04-24T05:20:30;97170.91;;;13.92;60.70
41624;BME280;27319;50.306;18.926;2023-04-24T05:24:30;97165.13;;;13.88;63.66
41624;BME280;27319;50.306;18.926;2023-04-24T05:28:31;97154.31;;;13.95;60.75
41624;BME280;27319;50.306;18.926;2023-04-24T05:32:28;97157.00;;;13.95;59.30
41624;BME280;27319;50.306;18.926;2023-04-24T05:35:29;97160.56;;;13.89;60.00
41624;BME280;27319;50.306;18.926;2023-04-24T05:38:50;97157.69;;;13.84;62.54
41624;BME280;27319;50.306;18.926;2023-04-24T05:42:51;97160.22;;;13.72;62.94
41624;BME280;27319;50.306;18.926;2023-04-24T05:46:52;97151.72;;;13.69;62.84
41624;BME280;27319;50.306;18.926;2023-04-24T05:50:52;97152.16;;;13.66;64.74
41624;BME280;27319;50.306;18.926;2023-04-24T05:54:53;97159.22;;;13.67;64.64
41624;BME280;27319;50.306;18.926;2023-04-24T05:58:54;97154.88;;;13.66;63.41
41624;BME280;27319;50.306;18.926;2023-04-24T06:02:35;97149.63;;;13.71;62.40
41624;BME280;27319;50.306;18.926;2023-04-24T06:05:56;97152.75;;;13.74;64.20
41624;BME280;27319;50.306;18.926;2023-04-24T06:09:56;97146.06;;;13.83;63.83
41624;BME280;27319;50.306;18.926;2023-04-24T06:13:57;97151.75;;;14.00;60.25
41624;BME280;27319;50.306;18.926;2023-04-24T06:17:58;97140.53;;;14.09;60.65
41624;BME280;27319;50.306;18.926;2023-04-24T06:21:59;97152.19;;;14.41;58.05
41624;BME280;27319;50.306;18.926;2023-04-24T06:26:00;97146.19;;;14.63;57.38
41624;BME280;27319;50.306;18.926;2023-04-24T06:30:00;97152.59;;;14.69;55.75
41624;BME280;27319;50.306;18.926;2023-04-24T06:34:01;97147.84;;;14.89;56.21
41624;BME280;27319;50.306;18.926;2023-04-24T06:38:02;97136.53;;;14.98;52.25
41624;BME280;27319;50.306;18.926;2023-04-24T06:42:03;97141.38;;;15.14;54.67
41624;BME280;27319;50.306;18.926;2023-04-24T06:46:03;97149.09;;;15.35;53.02
41624;BME280;27319;50.306;18.926;2023-04-24T06:50:04;97144.53;;;15.29;51.70
41624;BME280;27319;50.306;18.926;2023-04-24T06:54:05;97141.53;;;15.62;50.80
41624;BME280;27319;50.306;18.926;2023-04-24T06:58:06;97143.31;;;15.68;46.53
41624;BME280;27319;50.306;18.926;2023-04-24T07:02:06;97146.28;;;15.78;47.54
41624;BME280;27319;50.306;18.926;2023-04-24T07:06:07;97144.63;;;15.95;46.48
41624;BME280;27319;50.306;18.926;2023-04-24T07:10:08;97147.13;;;16.26;46.17
41624;BME280;27319;50.306;18.926;2023-04-24T07:14:08;97137.78;;;16.22;45.01
41624;BME280;27319;50.306;18.926;2023-04-24T07:18:09;97145.47;;;16.25;44.28
41624;BME280;27319;50.306;18.926;2023-04-24T07:22:10;97138.75;;;16.27;43.48
41624;BME280;27319;50.306;18.926;2023-04-24T07:26:10;97133.56;;;16.44;44.11
41624;BME280;27319;50.306;18.926;2023-04-24T07:30:11;97131.91;;;16.43;43.55
41624;BME280;27319;50.306;18.926;2023-04-24T07:34:12;97133.25;;;16.75;43.82
41624;BME280;27319;50.306;18.926;2023-04-24T07:38:13;97128.09;;;16.96;44.84
41624;BME280;27319;50.306;18.926;2023-04-24T07:42:13;97135.41;;;17.07;43.35
41624;BME280;27319;50.306;18.926;2023-04-24T07:46:14;97137.31;;;17.07;44.21
41624;BME280;27319;50.306;18.926;2023-04-24T07:50:15;97134.69;;;17.23;44.05
41624;BME280;27319;50.306;18.926;2023-04-24T07:54:15;97130.34;;;17.45;44.37
41624;BME280;27319;50.306;18.926;2023-04-24T07:58:16;97120.53;;;17.56;42.60
41624;BME280;27319;50.306;18.926;2023-04-24T08:01:57;97120.38;;;17.74;42.57
41624;BME280;27319;50.306;18.926;2023-04-24T08:05:18;97114.75;;;17.29;42.33
41624;BME280;27319;50.306;18.926;2023-04-24T08:09:19;97110.75;;;17.55;41.95
41624;BME280;27319;50.306;18.926;2023-04-24T08:13:20;97118.66;;;17.96;42.22
41624;BME280;27319;50.306;18.926;2023-04-24T08:17:20;97115.41;;;18.10;42.31
41624;BME280;27319;50.306;18.926;2023-04-24T08:21:21;97117.31;;;17.82;40.24
41624;BME280;27319;50.306;18.926;2023-04-24T08:25:22;97109.81;;;18.00;39.99
41624;BME280;27319;50.306;18.926;2023-04-24T08:29:23;97104.66;;;18.43;39.42
41624;BME280;27319;50.306;18.926;2023-04-24T08:33:24;97103.66;;;18.33;40.02
41624;BME280;27319;50.306;18.926;2023-04-24T08:37:25;97107.66;;;18.58;41.23
41624;BME280;27319;50.306;18.926;2023-04-24T08:41:25;97095.81;;;18.81;39.38
41624;BME280;27319;50.306;18.926;2023-04-24T08:45:26;97102.63;;;19.00;40.62
41624;BME280;27319;50.306;18.926;2023-04-24T08:49:27;97099.34;;;18.98;39.75
41624;BME280;27319;50.306;18.926;2023-04-24T08:53:27;97102.16;;;18.86;39.48
41624;BME280;27319;50.306;18.926;2023-04-24T08:57:28;97097.53;;;18.70;37.82
41624;BME280;27319;50.306;18.926;2023-04-24T09:01:28;97095.13;;;19.07;38.65
41624;BME280;27319;50.306;18.926;2023-04-24T09:05:29;97099.16;;;18.88;39.20
41624;BME280;27319;50.306;18.926;2023-04-24T09:09:30;97103.31;;;19.07;39.15
41624;BME280;27319;50.306;18.926;2023-04-24T09:13:31;97099.50;;;19.24;37.63
41624;BME280;27319;50.306;18.926;2023-04-24T09:17:32;97099.06;;;19.16;37.02
41624;BME280;27319;50.306;18.926;2023-04-24T09:21:33;97095.41;;;19.43;40.00
41624;BME280;27319;50.306;18.926;2023-04-24T09:25:34;97098.56;;;19.35;37.40
41624;BME280;27319;50.306;18.926;2023-04-24T09:29:34;97087.00;;;19.45;37.50
41624;BME280;27319;50.306;18.926;2023-04-24T09:33:35;97077.91;;;19.56;39.22
41624;BME280;27319;50.306;18.926;2023-04-24T09:37:50;97083.84;;;19.74;39.04
41624;BME280;27319;50.306;18.926;2023-04-24T09:41:54;97085.88;;;19.84;41.68
41624;BME280;27319;50.306;18.926;2023-04-24T09:46:09;97093.66;;;19.97;40.77
41624;BME280;27319;50.306;18.926;2023-04-24T09:50:22;97083.16;;;19.84;40.76
41624;BME280;27319;50.306;18.926;2023-04-24T09:54:37;97076.75;;;19.95;38.29
41624;BME280;27319;50.306;18.926;2023-04-24T09:58:37;97078.69;;;20.21;39.14
41624;BME280;27319;50.306;18.926;2023-04-24T10:02:41;97080.31;;;20.17;39.28
41624;BME280;27319;50.306;18.926;2023-04-24T10:07:04;97070.06;;;20.29;40.36
41624;BME280;27319;50.306;18.926;2023-04-24T10:11:15;97068.69;;;20.26;37.36
41624;BME280;27319;50.306;18.926;2023-04-24T10:15:16;97066.53;;;20.60;39.15
41624;BME280;27319;50.306;18.926;2023-04-24T10:19:22;97063.59;;;20.93;40.15
41624;BME280;27319;50.306;18.926;2023-04-24T10:23:25;97061.31;;;20.85;38.74
41624;BME280;27319;50.306;18.926;2023-04-24T10:27:27;97057.22;;;20.51;39.29
41624;BME280;27319;50.306;18.926;2023-04-24T10:31:30;97061.38;;;20.32;39.48
41624;BME280;27319;50.306;18.926;2023-04-24T10:35:31;97056.75;;;20.32;39.31
41624;BME280;27319;50.306;18.926;2023-04-24T10:39:35;97059.53;;;20.37;38.58
41624;BME280;27319;50.306;18.926;2023-04-24T10:43:37;97055.38;;;20.61;39.79
41624;BME280;27319;50.306;18.926;2023-04-24T10:47:41;97051.06;;;21.02;39.85
41624;BME280;27319;50.306;18.926;2023-04-24T10:55:39;97047.38;;;20.50;38.24
41624;BME280;27319;50.306;18.926;2023-04-24T10:59:46;97042.25;;;20.27;39.67
41624;BME280;27319;50.306;18.926;2023-04-24T11:03:50;97047.06;;;20.20;40.57
41624;BME280;27319;50.306;18.926;2023-04-24T11:11:46;97051.38;;;19.68;40.63
41624;BME280;27319;50.306;18.926;2023-04-24T11:19:29;97056.63;;;19.15;41.21
41624;BME280;27319;50.306;18.926;2023-04-24T11:22:50;97066.63;;;18.93;42.79
41624;BME280;27319;50.306;18.926;2023-04-24T11:27:24;97068.88;;;18.63;46.32
41624;BME280;27319;50.306;18.926;2023-04-24T11:30:58;97071.72;;;18.40;48.83
41624;BME280;27319;50.306;18.926;2023-04-24T11:35:05;97079.97;;;18.17;49.22
41624;BME280;27319;50.306;18.926;2023-04-24T11:39:05;97078.13;;;18.06;48.97
41624;BME280;27319;50.306;18.926;2023-04-24T11:43:06;97067.34;;;17.94;49.83
41624;BME280;27319;50.306;18.926;2023-04-24T11:47:06;97065.19;;;17.96;48.78
41624;BME280;27319;50.306;18.926;2023-04-24T11:51:07;97069.16;;;18.05;47.48
41624;BME280;27319;50.306;18.926;2023-04-24T11:55:09;97061.94;;;18.11;47.61
41624;BME280;27319;50.306;18.926;2023-04-24T11:59:08;97053.66;;;17.89;48.36
41624;BME280;27319;50.306;18.926;2023-04-24T12:03:10;97051.44;;;18.03;47.65
41624;BME280;27319;50.306;18.926;2023-04-24T12:07:19;97055.16;;;17.97;47.65
41624;BME280;27319;50.306;18.926;2023-04-24T12:11:22;97048.75;;;18.03;48.74
41624;BME280;27319;50.306;18.926;2023-04-24T12:15:23;97054.69;;;18.16;46.71
41624;BME280;27319;50.306;18.926;2023-04-24T12:19:24;97048.94;;;18.13;47.08
41624;BME280;27319;50.306;18.926;2023-04-24T12:23:34;97044.25;;;18.25;46.71
41624;BME280;27319;50.306;18.926;2023-04-24T12:27:44;97050.56;;;18.14;48.35
41624;BME280;27319;50.306;18.926;2023-04-24T12:31:44;97056.50;;;18.11;48.42
41624;BME280;27319;50.306;18.926;2023-04-24T12:35:48;97046.44;;;18.11;49.01
41624;BME280;27319;50.306;18.926;2023-04-24T12:40:01;97048.25;;;18.06;49.69
41624;BME280;27319;50.306;18.926;2023-04-24T12:44:10;97054.28;;;18.08;50.44
41624;BME280;27319;50.306;18.926;2023-04-24T12:48:13;97049.25;;;18.16;50.88
41624;BME280;27319;50.306;18.926;2023-04-24T12:52:17;97040.47;;;18.26;52.25
41624;BME280;27319;50.306;18.926;2023-04-24T12:56:17;97046.88;;;18.48;50.04
41624;BME280;27319;50.306;18.926;2023-04-24T13:00:18;97048.63;;;18.70;50.42
41624;BME280;27319;50.306;18.926;2023-04-24T13:04:19;97035.50;;;18.51;50.47
41624;BME280;27319;50.306;18.926;2023-04-24T13:08:20;97029.09;;;18.57;50.41
41624;BME280;27319;50.306;18.926;2023-04-24T13:12:20;97033.88;;;18.50;52.93
41624;BME280;27319;50.306;18.926;2023-04-24T13:16:24;97026.03;;;18.53;49.33
41624;BME280;27319;50.306;18.926;2023-04-24T13:20:24;97024.16;;;18.37;50.40
41624;BME280;27319;50.306;18.926;2023-04-24T13:24:25;97020.88;;;18.24;51.68
41624;BME280;27319;50.306;18.926;2023-04-24T13:28:26;97022.19;;;18.21;49.99
41624;BME280;27319;50.306;18.926;2023-04-24T13:32:27;97025.56;;;18.28;50.34
41624;BME280;27319;50.306;18.926;2023-04-24T13:36:28;97021.47;;;18.26;50.62
41624;BME280;27319;50.306;18.926;2023-04-24T13:40:31;97017.91;;;18.09;52.24
41624;BME280;27319;50.306;18.926;2023-04-24T13:43:57;97024.91;;;18.05;51.92
41624;BME280;27319;50.306;18.926;2023-04-24T13:47:59;97021.22;;;17.83;52.39
41624;BME280;27319;50.306;18.926;2023-04-24T13:52:01;97008.72;;;17.82;54.13
41624;BME280;27319;50.306;18.926;2023-04-24T13:55:45;97007.84;;;17.93;53.90
41624;BME280;27319;50.306;18.926;2023-04-24T13:59:41;97015.50;;;17.96;54.91
41624;BME280;27319;50.306;18.926;2023-04-24T14:02:42;97005.16;;;18.09;53.66
41624;BME280;27319;50.306;18.926;2023-04-24T14:05:46;97014.34;;;17.92;54.73
41624;BME280;27319;50.306;18.926;2023-04-24T14:09:20;97006.00;;;17.82;54.87
41624;BME280;27319;50.306;18.926;2023-04-24T14:13:46;96996.88;;;17.71;56.46
41624;BME280;27319;50.306;18.926;2023-04-24T14:17:47;97007.03;;;17.64;56.70
41624;BME280;27319;50.306;18.926;2023-04-24T14:22:03;97000.50;;;17.37;58.15
41624;BME280;27319;50.306;18.926;2023-04-24T14:26:11;97017.13;;;17.29;58.75
41624;BME280;27319;50.306;18.926;2023-04-24T14:30:15;97023.41;;;17.30;58.53
41624;BME280;27319;50.306;18.926;2023-04-24T14:34:25;97019.03;;;17.17;59.18
41624;BME280;27319;50.306;18.926;2023-04-24T14:38:28;97015.72;;;17.27;58.19
41624;BME280;27319;50.306;18.926;2023-04-24T14:42:29;97004.13;;;17.03;59.58
41624;BME280;27319;50.306;18.926;2023-04-24T14:46:30;97005.50;;;17.17;58.93
41624;BME280;27319;50.306;18.926;2023-04-24T14:50:31;97005.97;;;17.14;59.95
41624;BME280;27319;50.306;18.926;2023-04-24T14:54:31;97003.00;;;17.16;60.58
41624;BME280;27319;50.306;18.926;2023-04-24T14:58:32;97006.31;;;17.18;61.17
41624;BME280;27319;50.306;18.926;2023-04-24T15:02:13;97007.84;;;17.14;59.46
41624;BME280;27319;50.306;18.926;2023-04-24T15:05:14;97009.38;;;17.10;60.15
41624;BME280;27319;50.306;18.926;2023-04-24T15:08:15;97008.25;;;17.06;59.93
41624;BME280;27319;50.306;18.926;2023-04-24T15:11:36;97008.69;;;17.03;59.90
41624;BME280;27319;50.306;18.926;2023-04-24T15:15:25;97005.72;;;17.16;59.33
41624;BME280;27319;50.306;18.926;2023-04-24T15:18:26;97005.16;;;17.14;59.72
41624;BME280;27319;50.306;18.926;2023-04-24T15:21:48;97013.16;;;17.20;59.70
41624;BME280;27319;50.306;18.926;2023-04-24T15:25:49;97007.53;;;16.99;60.80
41624;BME280;27319;50.306;18.926;2023-04-24T15:29:50;97007.78;;;16.97;60.27
41624;BME280;27319;50.306;18.926;2023-04-24T15:33:50;97014.25;;;16.96;58.96
41624;BME280;27319;50.306;18.926;2023-04-24T15:37:51;97008.13;;;17.01;58.72
41624;BME280;27319;50.306;18.926;2023-04-24T15:41:52;97008.47;;;16.93;61.16
41624;BME280;27319;50.306;18.926;2023-04-24T15:45:53;97001.75;;;16.95;59.88
41624;BME280;27319;50.306;18.926;2023-04-24T15:49:53;97005.31;;;16.73;59.31
41624;BME280;27319;50.306;18.926;2023-04-24T15:53:54;97004.84;;;16.76;59.17
41624;BME280;27319;50.306;18.926;2023-04-24T15:57:55;97017.09;;;16.55;60.29
41624;BME280;27319;50.306;18.926;2023-04-24T16:01:56;97013.81;;;16.53;59.69
41624;BME280;27319;50.306;18.926;2023-04-24T16:05:56;97013.31;;;16.45;61.04
41624;BME280;27319;50.306;18.926;2023-04-24T16:09:57;97021.78;;;16.48;60.89
41624;BME280;27319;50.306;18.926;2023-04-24T16:13:58;97020.50;;;16.51;60.47
41624;BME280;27319;50.306;18.926;2023-04-24T16:17:59;97018.50;;;16.46;60.86
41624;BME280;27319;50.306;18.926;2023-04-24T16:22:00;97020.44;;;16.28;60.82
41624;BME280;27319;50.306;18.926;2023-04-24T16:26:00;97015.38;;;16.20;61.15
41624;BME280;27319;50.306;18.926;2023-04-24T16:29:41;97024.44;;;16.14;61.66
41624;BME280;27319;50.306;18.926;2023-04-24T16:33:02;97015.00;;;16.05;61.72
41624;BME280;27319;50.306;18.926;2023-04-24T16:37:03;97020.13;;;15.95;63.09
41624;BME280;27319;50.306;18.926;2023-04-24T16:41:03;97018.97;;;15.91;63.02
41624;BME280;27319;50.306;18.926;2023-04-24T16:45:04;97013.56;;;15.91;63.19
41624;BME280;27319;50.306;18.926;2023-04-24T16:49:06;97015.97;;;15.81;64.05
41624;BME280;27319;50.306;18.926;2023-04-24T16:53:07;97016.63;;;15.94;63.42
41624;BME280;27319;50.306;18.926;2023-04-24T16:57:07;97015.78;;;15.94;63.23
41624;BME280;27319;50.306;18.926;2023-04-24T17:01:08;97012.13;;;15.88;63.57
41624;BME280;27319;50.306;18.926;2023-04-24T17:04:09;97016.47;;;15.89;64.24
41624;BME280;27319;50.306;18.926;2023-04-24T17:07:10;97015.06;;;15.87;63.67
41624;BME280;27319;50.306;18.926;2023-04-24T17:10:31;97015.28;;;15.85;64.48
41624;BME280;27319;50.306;18.926;2023-04-24T17:14:32;97014.47;;;15.85;65.03
41624;BME280;27319;50.306;18.926;2023-04-24T17:18:32;97017.72;;;15.75;66.49
41624;BME280;27319;50.306;18.926;2023-04-24T17:22:13;97016.03;;;15.63;66.81
41624;BME280;27319;50.306;18.926;2023-04-24T17:25:34;97012.06;;;15.65;67.00
41624;BME280;27319;50.306;18.926;2023-04-24T17:29:35;97011.69;;;15.62;67.27
41624;BME280;27319;50.306;18.926;2023-04-24T17:33:34;97025.88;;;15.57;67.33
41624;BME280;27319;50.306;18.926;2023-04-24T17:36:54;97017.41;;;15.54;67.83
41624;BME280;27319;50.306;18.926;2023-04-24T17:40:55;97025.50;;;15.54;67.14
41624;BME280;27319;50.306;18.926;2023-04-24T17:44:56;97020.44;;;15.46;67.88
41624;BME280;27319;50.306;18.926;2023-04-24T17:48:57;97020.50;;;15.39;68.04
41624;BME280;27319;50.306;18.926;2023-04-24T17:52:58;97027.88;;;15.32;68.45
41624;BME280;27319;50.306;18.926;2023-04-24T17:56:58;97026.13;;;15.38;69.29
41624;BME280;27319;50.306;18.926;2023-04-24T18:00:59;97033.47;;;15.31;70.34
41624;BME280;27319;50.306;18.926;2023-04-24T18:04:27;97041.69;;;15.24;69.29
41624;BME280;27319;50.306;18.926;2023-04-24T18:08:28;97041.91;;;15.23;70.08
41624;BME280;27319;50.306;18.926;2023-04-24T18:12:29;97047.09;;;15.24;70.05
41624;BME280;27319;50.306;18.926;2023-04-24T18:16:10;97047.38;;;15.16;69.89
41624;BME280;27319;50.306;18.926;2023-04-24T18:19:10;97056.16;;;15.12;69.83
41624;BME280;27319;50.306;18.926;2023-04-24T18:22:31;97043.94;;;15.09;69.74
41624;BME280;27319;50.306;18.926;2023-04-24T18:26:32;97046.09;;;15.01;71.38
41624;BME280;27319;50.306;18.926;2023-04-24T18:30:15;97047.97;;;15.00;70.65
41624;BME280;27319;50.306;18.926;2023-04-24T18:33:35;97043.84;;;14.98;71.31
41624;BME280;27319;50.306;18.926;2023-04-24T18:37:36;97052.56;;;15.00;70.54
41624;BME280;27319;50.306;18.926;2023-04-24T18:41:37;97055.16;;;14.88;71.32
41624;BME280;27319;50.306;18.926;2023-04-24T18:45:38;97056.59;;;14.91;71.06
41624;BME280;27319;50.306;18.926;2023-04-24T18:49:39;97062.53;;;14.99;70.14
41624;BME280;27319;50.306;18.926;2023-04-24T18:53:39;97065.00;;;15.01;70.02
41624;BME280;27319;50.306;18.926;2023-04-24T18:57:40;97066.66;;;15.02;70.12
41624;BME280;27319;50.306;18.926;2023-04-24T19:01:42;97072.22;;;14.89;71.39
41624;BME280;27319;50.306;18.926;2023-04-24T19:05:44;97073.47;;;14.86;71.60
41624;BME280;27319;50.306;18.926;2023-04-24T19:09:44;97070.56;;;14.88;71.12
41624;BME280;27319;50.306;18.926;2023-04-24T19:13:45;97073.63;;;14.91;71.08
41624;BME280;27319;50.306;18.926;2023-04-24T19:17:46;97063.94;;;14.84;71.43
41624;BME280;27319;50.306;18.926;2023-04-24T19:21:47;97064.47;;;14.74;72.19
41624;BME280;27319;50.306;18.926;2023-04-24T19:25:48;97066.09;;;14.75;72.09
41624;BME280;27319;50.306;18.926;2023-04-24T19:29:48;97063.06;;;14.65;73.11
41624;BME280;27319;50.306;18.926;2023-04-24T19:33:37;97058.34;;;14.61;73.78
41624;BME280;27319;50.306;18.926;2023-04-24T19:37:38;97058.69;;;14.46;74.81
41624;BME280;27319;50.306;18.926;2023-04-24T19:41:39;97052.75;;;14.38;76.60
41624;BME280;27319;50.306;18.926;2023-04-24T19:45:39;97061.84;;;14.19;78.55
41624;BME280;27319;50.306;18.926;2023-04-24T19:49:40;97054.03;;;14.29;77.81
41624;BME280;27319;50.306;18.926;2023-04-24T19:53:41;97053.44;;;14.27;77.85
41624;BME280;27319;50.306;18.926;2023-04-24T19:57:05;97057.41;;;14.24;78.89
41624;BME280;27319;50.306;18.926;2023-04-24T20:00:26;97063.44;;;14.26;78.01
41624;BME280;27319;50.306;18.926;2023-04-24T20:04:07;97065.09;;;14.27;77.79
41624;BME280;27319;50.306;18.926;2023-04-24T20:07:29;97068.34;;;14.36;78.02
41624;BME280;27319;50.306;18.926;2023-04-24T20:11:30;97058.09;;;14.13;80.61
41624;BME280;27319;50.306;18.926;2023-04-24T20:15:30;97055.97;;;14.22;80.02
41624;BME280;27319;50.306;18.926;2023-04-24T20:19:31;97063.03;;;14.23;79.99
41624;BME280;27319;50.306;18.926;2023-04-24T20:23:32;97057.31;;;14.06;81.65
41624;BME280;27319;50.306;18.926;2023-04-24T20:27:33;97061.63;;;14.20;80.03
41624;BME280;27319;50.306;18.926;2023-04-24T20:31:33;97063.28;;;14.15;81.62
41624;BME280;27319;50.306;18.926;2023-04-24T20:35:29;97067.13;;;14.01;82.54